ADDS METAR Data INFO
IDs: Format: Raw Decoded Include TAF

Data at: 0021 UTC 11 Dec 2017

KEMV 110015Z AUTO 00000KT 10SM CLR M01/M02 A3016 RMK AO2
KEMV 102355Z AUTO 00000KT 10SM CLR 00/M02 A3016 RMK AO2
KEMV 102335Z AUTO 00000KT 10SM CLR 00/M02 A3016 RMK AO2
KEMV 102315Z AUTO 00000KT 10SM CLR 01/M03 A3015 RMK AO2
KEMV 102255Z AUTO 18003KT 10SM CLR 01/M03 A3016 RMK AO2
KEMV 102235Z AUTO 20003KT 10SM CLR 01/M03 A3015 RMK AO2
KEMV 102215Z AUTO 22003KT 10SM CLR 01/M03 A3015 RMK AO2
KEMV 102155Z AUTO 21004KT 10SM CLR 02/M03 A3015 RMK AO2
KEMV 102135Z AUTO 23004KT 10SM CLR 02/M03 A3014 RMK AO2
KEMV 102115Z AUTO 25007KT 10SM CLR 03/M03 A3014 RMK AO2
KEMV 102055Z AUTO 25004KT 10SM CLR 03/M03 A3014 RMK AO2
KEMV 102035Z AUTO 25008KT 10SM SCT038 03/M03 A3013 RMK AO2 PWINO
KEMV 102015Z AUTO 25006KT 200V270 10SM SCT038 04/M03 A3013 RMK AO2
KEMV 101955Z AUTO 25007KT SCT040 04/M03 A3013 RMK AO2 PWINO
KEMV 101935Z AUTO 25006KT SCT040 04/M03 A3013 RMK AO2 PWINO
KEMV 101915Z AUTO 23011KT BKN040 04/M03 A3013 RMK AO2 PWINO
KEMV 101855Z AUTO 23006KT BKN040 05/M03 A3013 RMK AO2 PWINO
KEMV 101835Z AUTO 25009G15KT SCT040 04/M03 A3014 RMK AO2 PWINO
KEMV 101815Z AUTO 21010G15KT SCT040 05/M03 A3014 RMK AO2 PWINO
KEMV 101755Z AUTO 22011KT SCT039 03/M04 A3015 RMK AO2 PWINO
KEMV 101735Z AUTO 23010KT SCT039 03/M04 A3015 RMK AO2 PWINO
KEMV 101715Z AUTO 22010KT SCT039 03/M03 A3016 RMK AO2 PWINO
KEMV 101655Z AUTO 25008G16KT SCT039 03/M03 A3017 RMK AO2 PWINO
KEMV 101635Z AUTO 26007KT CLR 03/M03 A3017 RMK AO2 PWINO
KEMV 101615Z AUTO 24006KT 10SM CLR 03/M02 A3017 RMK AO2
KEMV 101555Z AUTO 25010KT CLR 03/M03 A3018 RMK AO2 PWINO
KEMV 101535Z AUTO 25008G14KT CLR 02/M03 A3018 RMK AO2 PWINO
KEMV 101515Z AUTO 24006KT CLR 02/M02 A3017 RMK AO2 PWINO
KEMV 101455Z AUTO 25005KT CLR 02/M02 A3017 RMK AO2 PWINO
KEMV 101435Z AUTO 25005KT 10SM CLR 01/M02 A3016 RMK AO2
KEMV 101415Z AUTO 26005KT CLR 00/M03 A3015 RMK AO2 PWINO
KEMV 101355Z AUTO 24007KT 10SM CLR 00/M03 A3014 RMK AO2 PWINO
KEMV 101335Z AUTO 24006KT CLR 00/M03 A3013 RMK AO2 PWINO
KEMV 101315Z AUTO 24004KT M01/M03 A3013 RMK AO2 PWINO
KEMV 101255Z AUTO 24005KT 10SM CLR M01/M03 A3012 RMK AO2 PWINO
KEMV 101235Z AUTO 24005KT 10SM CLR M01/M03 A3012 RMK AO2
KEMV 101215Z AUTO 25006KT 10SM CLR M01/M03 A3011 RMK AO2
KEMV 101155Z AUTO 25004KT 10SM CLR M01/M03 A3010 RMK AO2
KEMV 101135Z AUTO 23005KT 10SM CLR M01/M03 A3008 RMK AO2
KEMV 101115Z AUTO 23006KT 10SM CLR M01/M03 A3007 RMK AO2
KEMV 101055Z AUTO 24005KT 10SM CLR M01/M02 A3006 RMK AO2
KEMV 101035Z AUTO 24005KT 10SM CLR M01/M02 A3004 RMK AO2
KEMV 101015Z AUTO 24004KT 10SM CLR 00/M02 A3003 RMK AO2
KEMV 100955Z AUTO 24004KT 10SM SCT090 00/M02 A3002 RMK AO2
KEMV 100935Z AUTO 24005KT 10SM OVC090 00/M01 A3000 RMK AO2
KEMV 100915Z AUTO 24004KT 10SM OVC090 00/M01 A3000 RMK AO2
KEMV 100855Z AUTO 24005KT 10SM SCT060 OVC080 00/M01 A2999 RMK AO2
KEMV 100835Z AUTO 00000KT 10SM BKN060 BKN080 00/00 A2998 RMK AO2
KEMV 100815Z AUTO 00000KT 5SM BR SCT060 SCT080 00/00 A2997 RMK AO2
KEMV 100755Z AUTO 00000KT 5SM BR SCT075 SCT100 00/00 A2997 RMK AO2 TSNO
KEMV 100735Z AUTO 00000KT 7SM BKN075 OVC100 00/00 A2996 RMK AO2
KEMV 100715Z AUTO 00000KT 7SM SCT010 BKN090 OVC110 00/00 A2996 RMK AO2 PWINO
KEMV 100655Z AUTO 00000KT 00/00 A2995 RMK AO2 P0001 PWINO
KEMV 100635Z AUTO 00000KT 7SM BKN011 OVC016 00/00 A2995 RMK AO2 P0001
KEMV 100615Z AUTO 00000KT 7SM OVC011 00/00 A2994 RMK AO2
KEMV 100555Z AUTO 00000KT 7SM OVC016 00/00 A2994 RMK AO2 P0001
KEMV 100535Z AUTO 00000KT 10SM BKN007 BKN010 OVC017 00/00 A2993 RMK AO2 P0001
KEMV 100515Z AUTO 00000KT 10SM OVC007 00/00 A2993 RMK AO2 P0001
KEMV 100455Z AUTO 00000KT 10SM OVC007 00/00 A2994 RMK AO2
KEMV 100435Z AUTO 23003KT 10SM BKN007 OVC011 00/00 A2993 RMK AO2 PWINO
KEMV 100415Z AUTO 24003KT 10SM OVC007 00/00 A2993 RMK AO2
KEMV 100355Z AUTO 00000KT 10SM BKN007 OVC016 00/00 A2993 RMK AO2
KEMV 100335Z AUTO 00000KT BKN005 BKN010 OVC018 00/00 A2993 RMK AO2 PWINO
KEMV 100315Z AUTO 00000KT 10SM OVC005 00/00 A2993 RMK AO2
KEMV 100255Z AUTO 23006KT OVC005 00/00 A2992 RMK AO2 PWINO
KEMV 100235Z AUTO 23006KT 10SM BKN005 OVC039 00/00 A2991 RMK AO2
KEMV 100215Z AUTO 23003KT 7SM SCT005 OVC039 00/00 A2990 RMK AO2
KEMV 100155Z AUTO 00000KT 7SM SCT006 OVC038 00/00 A2989 RMK AO2
KEMV 100135Z AUTO 00000KT 7SM BKN006 BKN044 OVC100 00/00 A2989 RMK AO2
KEMV 100115Z AUTO 24003KT 10SM BKN006 OVC100 00/00 A2988 RMK AO2
KEMV 100055Z AUTO 23003KT 10SM OVC006 00/00 A2988 RMK AO2
KEMV 100035Z AUTO 24003KT 7SM BKN006 OVC075 00/00 A2988 RMK AO2
KEMV 100015Z AUTO 00000KT 7SM SCT006 BKN075 OVC085 00/00 A2987 RMK AO2
KEMV 092355Z AUTO 00000KT 5SM -SN SCT011 BKN085 OVC110 00/00 A2985 RMK AO2
KEMV 092335Z AUTO 00000KT 5SM -SN SCT007 BKN055 OVC110 00/00 A2986 RMK AO2
KEMV 092315Z AUTO 26003KT 3SM -SN BKN005 OVC011 00/00 A2985 RMK AO2
KEMV 092255Z AUTO 00000KT 4SM -SN BKN005 OVC011 00/00 A2984 RMK AO2 TSNO
KEMV 092235Z AUTO 00000KT 3SM -SN BKN005 BKN009 OVC025 00/00 A2984 RMK AO2
KEMV 092215Z AUTO 00000KT 2SM -SN BKN005 OVC021 00/00 A2984 RMK AO2
KEMV 092155Z AUTO 00000KT 3SM -SN BKN005 BKN028 OVC035 00/00 A2984 RMK AO2 P0001
KEMV 092135Z AUTO 00000KT 2 1/2SM -SN OVC005 00/00 A2983 RMK AO2 P0001
KEMV 092115Z AUTO 00000KT 1 1/4SM -SN OVC005 00/00 A2982 RMK AO2 P0001
KEMV 092055Z AUTO 27003KT 1 3/4SM -SN OVC005 00/00 A2982 RMK AO2 P0001
KEMV 092035Z AUTO 28003KT 1 1/2SM -SN OVC005 00/00 A2981 RMK AO2 P0001
KEMV 092015Z AUTO 30004KT 1 1/2SM -SN OVC005 00/00 A2979 RMK AO2
KEMV 091955Z AUTO 31005KT 1 1/2SM -SN OVC005 00/00 A2979 RMK AO2 P0003
KEMV 091935Z AUTO 30006KT 1 1/4SM -SN OVC005 00/00 A2980 RMK AO2 P0001
KEMV 091915Z AUTO 31006KT 1 1/4SM -SN OVC005 00/00 A2979 RMK AO2 P0001
KEMV 091855Z AUTO 32005KT 1 1/2SM UP OVC007 00/00 A2979 RMK AO2
KEMV 091835Z AUTO 33008KT 1 1/2SM UP OVC005 00/00 A2980 RMK AO2
KEMV 091815Z AUTO 34009KT 1 1/2SM -SN OVC005 00/00 A2979 RMK AO2 TSNO
KEMV 091755Z AUTO 32007KT 1 1/2SM -SN OVC005 00/00 A2980 RMK AO2 P0001
KEMV 091735Z AUTO 32009KT 2SM OVC005 00/00 A2980 RMK AO2 PWINO
KEMV 091715Z AUTO 32008KT 1 3/4SM UP OVC005 00/00 A2981 RMK AO2
KEMV 091655Z AUTO 33007KT 1 1/4SM UP OVC005 00/00 A2983 RMK AO2 P0001
KEMV 091635Z AUTO 32010KT -SN OVC005 00/00 A2983 RMK AO2 P0001
KEMV 091615Z AUTO 32010KT 1SM UP OVC005 00/00 A2985 RMK AO2 P0001
KEMV 091555Z AUTO 31008KT 1 3/4SM UP OVC005 00/00 A2987 RMK AO2
KEMV 091535Z AUTO 33006KT UP OVC005 00/00 A2986 RMK AO2
KEMV 091515Z AUTO 33008KT 1 1/4SM UP OVC005 00/00 A2986 RMK AO2
KEMV 091455Z AUTO 32007KT 2SM UP OVC005 00/00 A2987 RMK AO2
KEMV 091435Z AUTO 33008KT OVC005 00/00 A2985 RMK AO2
KEMV 091415Z AUTO 34007KT -SN OVC005 00/00 A2986 RMK AO2
KEMV 091355Z AUTO 32009KT 4SM UP OVC005 00/00 A2988 RMK AO2 P0001
KEMV 091335Z AUTO 33007G14KT 4SM UP OVC005 00/00 A2987 RMK AO2
KEMV 091315Z AUTO 33007KT OVC005 00/00 A2990 RMK AO2 PWINO
KEMV 091255Z AUTO 32008KT OVC005 00/00 A2991 RMK AO2 P0002 PWINO
KEMV 091235Z AUTO 31007KT 2 1/2SM -SN OVC005 00/00 A2990 RMK AO2 P0001